Time;durP1;ratioP1;P1;durP2;ratioP2;P2;SDS_P1;SDS_P2;PMS_P1;PMS_P2;Temp;Humidity;BMP_temperature;BMP_pressure;BME280_temperature;BME280_humidity;BME280_pressure;Samples;Min_cycle;Max_cycle;Signal;HPM_P1;HPM_P2
2023/12/27 00:01:29;;;;;;;13.73;7.10;;;5.20;99.90;;;;;;5052987;28;20174;-71
2023/12/27 00:03:54;;;;;;;18.07;7.23;;;5.10;99.90;;;;;;5052376;28;20167;-71
2023/12/27 00:06:20;;;;;;;14.03;7.73;;;5.00;99.90;;;;;;5033075;28;20191;-72
2023/12/27 00:08:46;;;;;;;19.63;8.03;;;4.90;99.90;;;;;;5033058;28;20203;-72
2023/12/27 00:11:15;;;;;;;14.73;7.20;;;4.80;99.90;;;;;;5051508;28;20328;-71
2023/12/27 00:13:41;;;;;;;19.43;7.13;;;4.80;99.90;;;;;;5052857;28;20167;-71
2023/12/27 00:16:06;;;;;;;11.37;7.00;;;4.80;99.90;;;;;;5052869;28;20203;-72
2023/12/27 00:18:32;;;;;;;12.73;7.83;;;4.60;99.90;;;;;;5052911;28;20171;-72
2023/12/27 00:20:58;;;;;;;13.23;7.50;;;4.50;99.90;;;;;;5052640;28;20166;-71
2023/12/27 00:23:25;;;;;;;17.43;7.97;;;4.50;99.90;;;;;;5034916;28;20203;-72
2023/12/27 00:25:50;;;;;;;15.10;7.13;;;4.50;99.90;;;;;;5034826;28;20706;-72
2023/12/27 00:28:16;;;;;;;13.10;6.70;;;4.50;99.90;;;;;;5033345;28;20167;-72
2023/12/27 00:30:41;;;;;;;10.17;7.73;;;4.30;99.90;;;;;;5034906;28;20176;-72
2023/12/27 00:33:07;;;;;;;18.37;8.33;;;4.30;99.90;;;;;;5034966;28;20658;-72
2023/12/27 00:35:33;;;;;;;14.80;8.53;;;4.30;99.90;;;;;;5032025;28;20210;-72
2023/12/27 00:37:58;;;;;;;22.00;8.13;;;4.30;99.90;;;;;;5043368;28;20175;-71
2023/12/27 00:40:24;;;;;;;12.40;7.50;;;4.30;99.90;;;;;;5052533;28;20198;-72
2023/12/27 00:42:49;;;;;;;11.17;7.23;;;4.20;99.90;;;;;;5052391;28;20194;-72
2023/12/27 00:45:15;;;;;;;16.93;7.40;;;4.30;99.90;;;;;;5052361;28;20209;-71
2023/12/27 00:47:45;;;;;;;18.97;8.20;;;4.10;99.90;;;;;;5052188;28;20171;-71
2023/12/27 00:50:11;;;;;;;15.33;8.23;;;4.20;99.90;;;;;;5052080;28;20297;-71
2023/12/27 00:52:37;;;;;;;16.30;7.30;;;4.30;99.90;;;;;;5041819;28;20183;-72
2023/12/27 00:55:03;;;;;;;16.03;7.30;;;4.30;99.90;;;;;;5032416;28;20211;-72
2023/12/27 00:57:29;;;;;;;19.77;7.50;;;4.20;99.90;;;;;;5032035;28;20171;-71
2023/12/27 00:59:54;;;;;;;11.30;7.03;;;4.10;99.90;;;;;;5032246;28;20658;-71
2023/12/27 01:02:20;;;;;;;12.27;7.63;;;4.00;99.90;;;;;;5048834;28;20178;-72
2023/12/27 01:04:45;;;;;;;11.80;7.67;;;4.00;99.90;;;;;;5048265;28;20634;-72
2023/12/27 01:07:11;;;;;;;13.17;7.87;;;4.00;99.90;;;;;;5031409;28;20167;-72
2023/12/27 01:09:36;;;;;;;13.50;7.73;;;3.90;99.90;;;;;;5031981;28;20190;-72
2023/12/27 01:12:02;;;;;;;11.33;7.60;;;4.00;99.90;;;;;;5031978;28;20193;-72
2023/12/27 01:14:28;;;;;;;19.43;7.93;;;4.00;99.90;;;;;;5031575;28;20229;-72
2023/12/27 01:16:53;;;;;;;14.50;7.60;;;4.00;99.90;;;;;;5032019;28;20550;-71
2023/12/27 01:19:19;;;;;;;13.73;7.37;;;4.00;99.90;;;;;;5033693;28;20171;-72
2023/12/27 01:21:45;;;;;;;12.93;7.30;;;4.10;99.90;;;;;;5051909;28;20212;-72
2023/12/27 01:24:11;;;;;;;16.10;7.97;;;4.00;99.90;;;;;;5051536;28;20166;-72
2023/12/27 01:26:36;;;;;;;28.13;8.70;;;4.00;99.90;;;;;;5051300;28;20177;-72
2023/12/27 01:29:02;;;;;;;21.90;8.10;;;4.10;99.90;;;;;;5051475;28;20171;-72
2023/12/27 01:31:27;;;;;;;24.73;8.57;;;4.20;99.90;;;;;;5051531;28;20635;-72
2023/12/27 01:33:53;;;;;;;15.07;8.03;;;4.20;99.90;;;;;;5049810;28;20194;-71
2023/12/27 01:36:19;;;;;;;12.00;7.87;;;4.20;99.90;;;;;;5050998;28;20199;-71
2023/12/27 01:38:45;;;;;;;13.67;7.20;;;4.20;99.90;;;;;;5051217;28;20173;-71
2023/12/27 01:41:10;;;;;;;17.70;7.60;;;4.30;99.90;;;;;;5047709;28;20179;-71
2023/12/27 01:43:37;;;;;;;10.53;8.33;;;4.20;99.90;;;;;;5031290;28;20163;-72
2023/12/27 01:46:03;;;;;;;15.03;8.03;;;4.30;99.90;;;;;;5031436;28;20196;-72
2023/12/27 01:48:30;;;;;;;12.47;8.30;;;4.40;99.90;;;;;;5031742;28;20168;-72
2023/12/27 01:50:58;;;;;;;16.80;7.47;;;4.40;99.90;;;;;;5031423;28;20643;-72
2023/12/27 01:53:24;;;;;;;15.70;7.43;;;4.30;99.90;;;;;;5031613;28;20175;-71
2023/12/27 01:55:51;;;;;;;15.83;7.77;;;4.20;99.90;;;;;;5033821;28;20249;-71
2023/12/27 01:58:17;;;;;;;14.73;7.77;;;4.20;99.90;;;;;;5052100;28;20174;-71
2023/12/27 02:00:45;;;;;;;16.70;8.53;;;4.10;99.90;;;;;;5042453;28;20205;-72
2023/12/27 02:03:11;;;;;;;12.60;7.47;;;4.00;99.90;;;;;;5031214;28;20206;-71
2023/12/27 02:05:38;;;;;;;15.90;8.07;;;3.90;99.90;;;;;;5050274;28;20639;-72
2023/12/27 02:08:05;;;;;;;15.77;8.40;;;4.00;99.90;;;;;;5050809;28;20209;-72
2023/12/27 02:10:30;;;;;;;10.07;7.87;;;4.00;99.90;;;;;;5051077;28;20232;-72
2023/12/27 02:12:56;;;;;;;12.13;7.53;;;4.00;99.90;;;;;;5050949;28;20179;-72
2023/12/27 02:15:22;;;;;;;18.03;8.47;;;4.00;99.90;;;;;;5050468;28;20214;-72
2023/12/27 02:17:48;;;;;;;19.20;8.07;;;4.00;99.90;;;;;;5051841;28;20582;-72
2023/12/27 02:20:14;;;;;;;14.97;8.13;;;3.90;99.90;;;;;;5055020;28;20278;-72
2023/12/27 02:22:43;;;;;;;12.97;7.90;;;4.00;99.90;;;;;;5054709;28;20178;-72
2023/12/27 02:25:09;;;;;;;21.83;8.07;;;4.00;99.90;;;;;;5054602;28;20673;-71
2023/12/27 02:27:34;;;;;;;15.40;8.03;;;4.00;99.90;;;;;;5053321;28;20175;-71
2023/12/27 02:30:00;;;;;;;30.47;8.77;;;3.80;99.90;;;;;;5034775;28;20258;-70
2023/12/27 02:32:26;;;;;;;14.53;7.87;;;3.90;99.90;;;;;;5034971;28;20184;-70
2023/12/27 02:34:52;;;;;;;18.60;8.20;;;3.90;99.90;;;;;;5034243;28;20203;-70
2023/12/27 02:37:17;;;;;;;15.67;8.27;;;3.90;99.90;;;;;;5034819;28;20164;-71
2023/12/27 02:39:43;;;;;;;18.77;7.90;;;3.90;99.90;;;;;;5034900;28;20599;-71
2023/12/27 02:42:08;;;;;;;19.33;8.40;;;4.00;99.90;;;;;;5034699;28;20535;-71
2023/12/27 02:44:34;;;;;;;13.10;7.83;;;3.90;99.90;;;;;;5053890;28;20621;-71
2023/12/27 02:47:01;;;;;;;16.73;8.73;;;4.00;99.90;;;;;;5054697;28;20619;-70
2023/12/27 02:49:27;;;;;;;20.27;9.03;;;4.00;99.90;;;;;;5054370;28;20440;-70
2023/12/27 02:51:53;;;;;;;20.17;8.73;;;3.80;99.90;;;;;;5052533;28;20622;-71
2023/12/27 02:54:18;;;;;;;12.53;7.40;;;4.00;99.90;;;;;;5054338;28;20198;-71
2023/12/27 02:56:44;;;;;;;20.97;8.57;;;4.00;99.90;;;;;;5040443;28;20241;-70
2023/12/27 02:59:09;;;;;;;23.83;8.67;;;3.90;99.90;;;;;;5034489;28;20179;-71
2023/12/27 03:01:35;;;;;;;13.63;9.07;;;3.90;99.90;;;;;;5016662;28;20191;-71
2023/12/27 03:04:01;;;;;;;14.90;9.07;;;4.00;99.90;;;;;;5034306;28;20226;-71
2023/12/27 03:06:27;;;;;;;15.53;8.70;;;4.00;99.90;;;;;;5033969;28;20261;-70
2023/12/27 03:08:53;;;;;;;17.60;8.20;;;3.90;99.90;;;;;;5033523;28;20226;-69
2023/12/27 03:11:19;;;;;;;18.13;9.20;;;3.90;99.90;;;;;;5045767;28;20181;-71
2023/12/27 03:13:45;;;;;;;20.97;9.27;;;4.00;99.90;;;;;;5053752;28;20537;-71
2023/12/27 03:16:11;;;;;;;24.30;8.63;;;3.90;99.90;;;;;;5053885;28;20206;-71
2023/12/27 03:18:38;;;;;;;24.47;9.27;;;4.00;99.90;;;;;;5054805;28;20601;-71
2023/12/27 03:21:04;;;;;;;17.17;8.73;;;4.00;99.90;;;;;;5056653;28;20183;-71
2023/12/27 03:23:30;;;;;;;15.70;8.53;;;3.90;99.90;;;;;;5047724;28;20180;-71
2023/12/27 03:25:55;;;;;;;14.07;8.80;;;4.00;99.90;;;;;;5015603;28;20555;-70
2023/12/27 03:28:22;;;;;;;14.30;8.50;;;4.00;99.90;;;;;;5033666;28;20654;-70
2023/12/27 03:30:48;;;;;;;22.70;8.83;;;4.00;99.90;;;;;;5034636;28;20635;-71
2023/12/27 03:33:14;;;;;;;12.10;8.80;;;3.90;99.90;;;;;;5053512;28;20186;-71
2023/12/27 03:35:39;;;;;;;17.30;9.13;;;3.80;99.90;;;;;;5052835;28;20620;-70
2023/12/27 03:38:05;;;;;;;22.27;9.17;;;3.90;99.90;;;;;;5053242;28;20171;-71
2023/12/27 03:40:30;;;;;;;15.40;8.90;;;3.80;99.90;;;;;;5053477;28;20642;-70
2023/12/27 03:42:56;;;;;;;17.83;9.60;;;4.00;99.90;;;;;;5053259;28;20175;-71
2023/12/27 03:45:22;;;;;;;15.40;8.47;;;3.80;99.90;;;;;;5052792;28;20203;-73
2023/12/27 03:47:47;;;;;;;11.47;8.80;;;3.90;99.90;;;;;;5033364;28;20180;-71
2023/12/27 03:50:13;;;;;;;17.20;8.33;;;4.00;99.90;;;;;;5033595;28;20180;-71
2023/12/27 03:52:39;;;;;;;18.70;8.67;;;3.90;99.90;;;;;;5033478;28;20314;-71
2023/12/27 03:55:05;;;;;;;22.13;9.73;;;4.20;99.90;;;;;;5033079;28;20211;-71
2023/12/27 03:57:30;;;;;;;22.30;10.17;;;4.20;99.90;;;;;;5039253;28;20187;-71
2023/12/27 03:59:56;;;;;;;14.73;8.93;;;4.30;99.90;;;;;;5033210;28;20558;-72
2023/12/27 04:02:22;;;;;;;18.57;9.83;;;4.40;99.90;;;;;;5033304;28;20187;-71
2023/12/27 04:04:47;;;;;;;24.90;9.87;;;4.40;99.90;;;;;;5032973;28;20222;-71
2023/12/27 04:07:14;;;;;;;17.23;9.40;;;4.50;99.90;;;;;;5032990;28;20175;-71
2023/12/27 04:09:40;;;;;;;15.00;9.00;;;4.60;99.90;;;;;;5015778;28;20230;-71
2023/12/27 04:12:07;;;;;;;20.23;9.80;;;4.60;99.90;;;;;;5032924;28;20241;-71
2023/12/27 04:14:32;;;;;;;16.60;9.57;;;4.60;99.90;;;;;;5032522;28;20628;-71
2023/12/27 04:16:58;;;;;;;13.13;9.67;;;4.60;99.90;;;;;;5033111;28;20183;-71
2023/12/27 04:19:23;;;;;;;21.40;9.33;;;4.70;99.90;;;;;;5032861;28;20639;-74
2023/12/27 04:21:49;;;;;;;20.37;9.17;;;4.70;99.90;;;;;;5032820;28;20266;-71
2023/12/27 04:24:15;;;;;;;14.47;9.10;;;4.70;99.90;;;;;;5035575;28;20182;-71
2023/12/27 04:26:41;;;;;;;22.13;8.97;;;4.80;99.90;;;;;;5052597;28;20236;-71
2023/12/27 04:29:08;;;;;;;15.60;9.50;;;4.90;99.90;;;;;;5034582;28;20186;-71
2023/12/27 04:31:33;;;;;;;21.20;10.00;;;5.00;99.90;;;;;;5052477;28;20179;-72
2023/12/27 04:34:00;;;;;;;20.73;9.70;;;5.00;99.90;;;;;;5052264;28;20177;-70
2023/12/27 04:36:25;;;;;;;17.97;9.53;;;5.00;99.90;;;;;;5051895;28;20274;-71
2023/12/27 04:38:51;;;;;;;17.97;8.87;;;5.10;99.90;;;;;;5050526;28;20181;-71
2023/12/27 04:41:17;;;;;;;20.63;9.20;;;5.00;99.90;;;;;;5032351;28;20176;-73
2023/12/27 04:43:43;;;;;;;11.97;8.20;;;5.00;99.90;;;;;;5034806;28;20168;-71
2023/12/27 04:46:10;;;;;;;21.23;8.33;;;5.10;99.90;;;;;;5033062;28;20198;-71
2023/12/27 04:48:35;;;;;;;22.70;9.13;;;5.20;99.90;;;;;;5032130;28;20171;-71
2023/12/27 04:51:01;;;;;;;17.33;8.50;;;5.20;99.90;;;;;;5032075;28;20172;-71
2023/12/27 04:53:26;;;;;;;13.67;9.23;;;5.30;99.90;;;;;;5046984;28;20179;-71
2023/12/27 04:55:52;;;;;;;18.00;8.67;;;5.30;99.90;;;;;;5051520;28;20210;-71
2023/12/27 04:58:18;;;;;;;17.37;8.50;;;5.30;99.90;;;;;;5052095;28;20163;-71
2023/12/27 05:00:43;;;;;;;21.73;9.57;;;5.30;99.90;;;;;;5052214;28;20166;-71
2023/12/27 05:03:09;;;;;;;13.97;8.73;;;5.40;99.90;;;;;;5051784;28;20262;-71
2023/12/27 05:05:34;;;;;;;22.23;9.73;;;5.40;99.90;;;;;;5051728;28;20186;-71
2023/12/27 05:08:00;;;;;;;13.53;9.13;;;5.40;99.90;;;;;;5037895;28;20184;-71
2023/12/27 05:10:26;;;;;;;16.37;8.60;;;5.40;99.90;;;;;;5031876;28;20179;-71
2023/12/27 05:12:53;;;;;;;23.23;9.77;;;5.40;99.90;;;;;;5031639;28;20168;-71
2023/12/27 05:15:19;;;;;;;19.60;8.73;;;5.50;99.90;;;;;;5031616;28;20207;-71
2023/12/27 05:17:45;;;;;;;19.67;9.90;;;5.50;99.90;;;;;;5031584;28;20251;-71
2023/12/27 05:20:11;;;;;;;25.30;10.10;;;5.50;99.90;;;;;;5038325;28;20177;-71
2023/12/27 05:22:39;;;;;;;19.13;9.30;;;5.50;99.90;;;;;;5050796;28;20179;-71
2023/12/27 05:25:08;;;;;;;13.80;9.17;;;5.60;99.90;;;;;;5050654;28;20207;-71
2023/12/27 05:27:34;;;;;;;13.83;8.97;;;5.60;99.90;;;;;;5051974;28;20175;-72
2023/12/27 05:30:01;;;;;;;14.17;9.60;;;5.70;99.90;;;;;;5051530;28;20173;-71
2023/12/27 05:32:26;;;;;;;24.33;10.33;;;5.70;99.90;;;;;;5051496;28;20182;-72
2023/12/27 05:34:53;;;;;;;18.30;9.67;;;5.70;99.90;;;;;;5044053;28;20204;-71
2023/12/27 05:37:19;;;;;;;13.97;9.47;;;5.70;99.90;;;;;;5031980;28;20163;-71
2023/12/27 05:39:45;;;;;;;17.63;9.33;;;5.70;99.90;;;;;;5031445;28;20172;-71
2023/12/27 05:42:13;;;;;;;18.63;10.10;;;5.80;99.90;;;;;;5031577;28;20179;-71
2023/12/27 05:44:39;;;;;;;17.07;9.40;;;5.80;99.90;;;;;;5031064;28;20188;-71
2023/12/27 05:47:04;;;;;;;18.90;9.57;;;5.80;99.90;;;;;;5031292;28;20178;-70
2023/12/27 05:49:30;;;;;;;16.83;9.17;;;5.90;99.90;;;;;;5051123;28;20498;-71
2023/12/27 05:51:56;;;;;;;18.13;9.30;;;6.00;99.90;;;;;;5050816;28;20182;-71
2023/12/27 05:54:21;;;;;;;17.67;9.63;;;6.00;99.90;;;;;;5039764;28;20182;-71
2023/12/27 05:56:47;;;;;;;18.57;8.47;;;6.00;99.90;;;;;;5030820;28;20282;-71
2023/12/27 05:59:13;;;;;;;24.00;9.43;;;6.00;99.90;;;;;;5031073;28;20168;-71
2023/12/27 06:01:52;;;;;;;14.60;8.27;;;6.10;99.90;;;;;;5031189;28;20611;-71
2023/12/27 06:04:18;;;;;;;15.20;9.20;;;6.10;99.90;;;;;;5031178;28;20167;-71
2023/12/27 06:06:44;;;;;;;13.07;9.00;;;6.10;99.90;;;;;;5033371;28;20563;-72
2023/12/27 06:09:10;;;;;;;13.80;8.30;;;6.20;99.90;;;;;;5032972;28;20195;-71
2023/12/27 06:11:37;;;;;;;17.43;8.83;;;6.20;99.90;;;;;;5031072;28;20199;-71
2023/12/27 06:14:03;;;;;;;23.00;9.27;;;6.20;99.90;;;;;;5030966;28;20171;-71
2023/12/27 06:16:29;;;;;;;12.03;8.67;;;6.30;99.90;;;;;;5050294;28;20301;-72
2023/12/27 06:18:56;;;;;;;15.23;8.63;;;6.30;99.90;;;;;;5050764;28;20247;-73
2023/12/27 06:21:22;;;;;;;14.07;8.80;;;6.40;99.90;;;;;;5050838;28;20178;-71
2023/12/27 06:23:47;;;;;;;12.63;9.07;;;6.40;99.90;;;;;;5050696;28;20208;-71
2023/12/27 06:26:13;;;;;;;16.83;9.30;;;6.40;99.90;;;;;;5032915;28;20206;-72
2023/12/27 06:28:41;;;;;;;11.70;9.30;;;6.40;99.90;;;;;;5050923;28;20175;-71
2023/12/27 06:31:07;;;;;;;18.80;9.40;;;6.40;99.90;;;;;;5031823;28;20187;-72
2023/12/27 06:33:32;;;;;;;11.40;9.07;;;6.50;99.90;;;;;;5031036;28;20171;-71
2023/12/27 06:35:58;;;;;;;13.23;8.83;;;6.60;99.90;;;;;;5030127;28;20233;-71
2023/12/27 06:38:23;;;;;;;16.23;9.67;;;6.50;99.90;;;;;;5030954;28;20643;-71
2023/12/27 06:40:49;;;;;;;16.97;9.13;;;6.50;99.90;;;;;;5031137;28;20200;-71
2023/12/27 06:43:15;;;;;;;17.17;9.63;;;6.60;99.90;;;;;;5042845;28;20749;-71
2023/12/27 06:45:40;;;;;;;15.30;9.17;;;6.60;99.90;;;;;;5050212;28;20193;-71
2023/12/27 06:48:06;;;;;;;12.37;9.17;;;6.60;99.90;;;;;;5050686;28;20576;-71
2023/12/27 06:50:31;;;;;;;13.10;9.40;;;6.60;99.90;;;;;;5050901;28;20227;-71
2023/12/27 06:52:57;;;;;;;12.97;9.33;;;6.70;99.90;;;;;;5050290;28;20177;-72
2023/12/27 06:55:23;;;;;;;13.87;9.30;;;6.80;99.90;;;;;;5050554;28;20203;-72
2023/12/27 06:57:48;;;;;;;15.10;10.23;;;6.80;99.90;;;;;;5040217;28;20270;-72
2023/12/27 07:00:14;;;;;;;12.40;8.50;;;6.80;99.90;;;;;;5030675;28;20199;-71
2023/12/27 07:02:40;;;;;;;16.03;9.17;;;6.80;99.90;;;;;;5030720;28;20568;-71
2023/12/27 07:05:07;;;;;;;14.40;9.23;;;6.90;99.90;;;;;;5031868;28;20195;-72
2023/12/27 07:07:33;;;;;;;16.70;9.93;;;6.90;99.90;;;;;;5046873;28;20592;-71
2023/12/27 07:09:59;;;;;;;13.47;9.57;;;6.90;99.90;;;;;;5054195;28;20174;-70
2023/12/27 07:12:26;;;;;;;20.10;12.07;;;6.90;99.90;;;;;;5054017;28;20551;-72
2023/12/27 07:14:52;;;;;;;15.77;10.53;;;6.90;99.90;;;;;;5053320;28;20261;-71
2023/12/27 07:17:20;;;;;;;12.63;9.27;;;6.90;99.90;;;;;;5053666;28;20242;-71
2023/12/27 07:19:46;;;;;;;12.30;9.03;;;7.00;99.90;;;;;;5053607;28;20249;-72
2023/12/27 07:22:11;;;;;;;18.60;13.43;;;7.00;99.90;;;;;;5053504;28;20309;-71
2023/12/27 07:24:37;;;;;;;16.90;10.83;;;6.90;99.90;;;;;;5053772;28;20187;-71
2023/12/27 07:27:03;;;;;;;18.20;9.77;;;7.00;99.90;;;;;;5054153;28;20293;-71
2023/12/27 07:29:29;;;;;;;17.50;9.33;;;7.00;99.90;;;;;;5053830;28;20220;-71
2023/12/27 07:31:54;;;;;;;14.57;9.83;;;7.00;99.90;;;;;;5055792;28;20229;-71
2023/12/27 07:34:21;;;;;;;12.27;9.33;;;7.00;99.90;;;;;;5054192;28;20167;-71
2023/12/27 07:36:48;;;;;;;11.97;8.77;;;7.00;99.90;;;;;;5052807;28;20345;-71
2023/12/27 07:39:15;;;;;;;16.07;10.40;;;7.00;99.90;;;;;;5033199;28;20537;-70
2023/12/27 07:41:42;;;;;;;16.50;9.73;;;7.10;99.90;;;;;;5033315;28;20168;-70
2023/12/27 07:44:08;;;;;;;11.30;9.23;;;7.10;99.90;;;;;;5033506;28;20174;-70
2023/12/27 07:46:34;;;;;;;13.13;9.33;;;7.10;99.90;;;;;;5016561;28;20191;-70
2023/12/27 07:49:01;;;;;;;11.50;9.20;;;7.10;99.90;;;;;;5033206;28;20167;-70
2023/12/27 07:51:26;;;;;;;12.70;9.47;;;7.10;99.90;;;;;;5033322;28;20176;-70
2023/12/27 07:53:52;;;;;;;16.20;9.23;;;7.20;99.90;;;;;;5032944;28;20179;-70
2023/12/27 07:56:18;;;;;;;13.03;9.30;;;7.20;99.90;;;;;;5014673;28;20705;-70
2023/12/27 07:58:45;;;;;;;16.13;8.60;;;7.20;99.90;;;;;;5033284;28;20174;-70
2023/12/27 08:01:11;;;;;;;13.70;8.70;;;7.20;99.90;;;;;;5015704;28;20168;-70
2023/12/27 08:03:38;;;;;;;10.50;8.70;;;7.20;99.90;;;;;;5052753;28;20362;-70
2023/12/27 08:06:04;;;;;;;12.93;8.87;;;7.30;99.90;;;;;;5052450;28;20262;-70
2023/12/27 08:08:29;;;;;;;14.43;8.77;;;7.30;99.90;;;;;;5052790;28;20179;-70
2023/12/27 08:10:55;;;;;;;14.00;8.90;;;7.30;99.90;;;;;;5037073;28;20211;-70
2023/12/27 08:13:21;;;;;;;14.53;9.57;;;7.40;99.90;;;;;;5051377;28;20845;-70
2023/12/27 08:15:46;;;;;;;11.03;8.73;;;7.40;99.90;;;;;;5052123;28;20214;-70
2023/12/27 08:18:12;;;;;;;11.67;8.90;;;7.40;99.90;;;;;;5052329;28;20753;-70
2023/12/27 08:20:38;;;;;;;14.67;8.57;;;7.50;99.90;;;;;;5050384;28;20269;-70
2023/12/27 08:23:03;;;;;;;10.17;8.60;;;7.50;99.90;;;;;;5052161;28;20214;-71
2023/12/27 08:25:29;;;;;;;15.77;8.37;;;7.50;99.90;;;;;;5032493;28;20212;-71
2023/12/27 08:27:54;;;;;;;14.23;9.10;;;7.60;99.90;;;;;;5032342;28;20691;-71
2023/12/27 08:30:21;;;;;;;13.73;7.70;;;7.60;99.90;;;;;;5032085;28;20171;-70
2023/12/27 08:32:46;;;;;;;12.17;8.70;;;7.70;99.90;;;;;;5032253;28;20168;-70
2023/12/27 08:35:12;;;;;;;12.67;8.53;;;7.70;99.90;;;;;;5031407;28;20199;-70
2023/12/27 08:37:38;;;;;;;16.97;8.63;;;7.70;99.90;;;;;;5045415;28;20265;-70
2023/12/27 08:40:04;;;;;;;12.37;8.73;;;7.70;99.90;;;;;;5050401;28;20174;-70
2023/12/27 08:42:30;;;;;;;10.17;9.17;;;7.70;99.90;;;;;;5052062;28;20236;-70
2023/12/27 08:44:55;;;;;;;14.47;8.57;;;7.80;99.90;;;;;;5051867;28;20662;-70
2023/12/27 08:47:22;;;;;;;14.60;8.83;;;7.80;99.90;;;;;;5027376;28;20175;-70
2023/12/27 08:49:47;;;;;;;10.73;8.20;;;7.90;99.90;;;;;;5042794;28;20175;-70
2023/12/27 08:52:13;;;;;;;12.47;7.53;;;7.90;99.90;;;;;;5051620;28;20171;-70
2023/12/27 08:54:39;;;;;;;11.03;8.47;;;8.00;99.90;;;;;;5051658;28;20575;-70
2023/12/27 08:57:05;;;;;;;10.70;7.27;;;8.00;99.90;;;;;;5047224;28;20179;-70
2023/12/27 08:59:30;;;;;;;15.10;7.63;;;8.10;99.90;;;;;;5031675;28;20254;-71
2023/12/27 09:01:56;;;;;;;9.57;7.30;;;8.20;99.90;;;;;;5031603;28;20222;-70
2023/12/27 09:04:22;;;;;;;14.97;7.17;;;8.30;99.90;;;;;;5032606;28;20266;-70
2023/12/27 09:06:48;;;;;;;10.57;7.27;;;8.30;99.90;;;;;;5031390;28;20164;-70
2023/12/27 09:09:13;;;;;;;11.97;6.67;;;8.40;99.90;;;;;;5030812;28;20258;-70
2023/12/27 09:11:39;;;;;;;9.07;6.80;;;8.40;99.90;;;;;;5031853;28;20175;-71
2023/12/27 09:14:05;;;;;;;7.20;6.50;;;8.50;99.90;;;;;;5031506;28;20179;-71
2023/12/27 09:16:31;;;;;;;8.43;6.60;;;8.50;99.90;;;;;;5032312;28;20211;-71
2023/12/27 09:18:58;;;;;;;17.07;10.13;;;8.50;99.90;;;;;;5031440;28;20650;-70
2023/12/27 09:21:24;;;;;;;13.30;7.67;;;8.60;99.90;;;;;;5031170;28;20192;-70
2023/12/27 09:23:49;;;;;;;10.97;7.10;;;8.60;99.90;;;;;;5031267;28;20168;-70
2023/12/27 09:26:15;;;;;;;10.13;6.97;;;8.70;99.90;;;;;;5030973;28;20238;-70
2023/12/27 09:28:41;;;;;;;7.90;7.20;;;8.70;99.90;;;;;;5030924;28;20221;-70
2023/12/27 09:31:08;;;;;;;6.77;6.10;;;8.80;99.90;;;;;;5037843;28;20175;-71
2023/12/27 09:33:33;;;;;;;7.23;5.90;;;8.80;99.90;;;;;;5045434;28;20178;-70
2023/12/27 09:35:59;;;;;;;10.00;5.60;;;8.90;99.90;;;;;;5050644;28;20205;-70
2023/12/27 09:38:24;;;;;;;7.73;5.47;;;8.90;99.90;;;;;;5051843;28;20183;-70
2023/12/27 09:40:50;;;;;;;6.00;5.43;;;9.00;99.90;;;;;;5047888;28;20176;-70
2023/12/27 09:43:17;;;;;;;8.27;5.83;;;9.00;99.90;;;;;;5031180;28;20164;-70
2023/12/27 09:45:45;;;;;;;5.03;4.63;;;9.00;99.90;;;;;;5030944;28;20214;-71
2023/12/27 09:48:13;;;;;;;5.90;5.23;;;9.10;99.90;;;;;;5032433;28;20658;-70
2023/12/27 09:50:40;;;;;;;5.40;4.90;;;9.10;99.90;;;;;;5031147;28;20172;-70
2023/12/27 09:53:09;;;;;;;5.80;4.97;;;9.10;99.90;;;;;;5031204;28;20225;-70
2023/12/27 09:55:34;;;;;;;5.63;5.10;;;9.20;99.90;;;;;;5030864;28;20207;-70
2023/12/27 09:58:00;;;;;;;8.33;4.97;;;9.20;99.90;;;;;;5030971;28;20171;-70
2023/12/27 10:00:30;;;;;;;5.37;4.90;;;9.20;99.90;;;;;;5032044;28;20263;-70
2023/12/27 10:02:58;;;;;;;5.53;4.93;;;9.30;99.90;;;;;;5030794;28;20594;-70
2023/12/27 10:05:41;;;;;;;6.07;4.97;;;9.30;99.90;;;;;;5030623;28;20574;-70
2023/12/27 10:08:08;;;;;;;6.17;4.90;;;9.40;99.90;;;;;;5030779;28;20176;-70
2023/12/27 10:10:35;;;;;;;6.90;4.70;;;9.40;99.90;;;;;;5030824;28;20519;-70
2023/12/27 10:13:02;;;;;;;8.90;5.10;;;9.50;99.90;;;;;;5030806;28;20164;-70
2023/12/27 10:15:29;;;;;;;5.40;5.00;;;9.50;99.90;;;;;;5031580;28;20686;-70
2023/12/27 10:17:54;;;;;;;6.27;5.23;;;9.50;99.90;;;;;;5030975;28;20589;-70
2023/12/27 10:20:36;;;;;;;7.47;5.33;;;9.50;99.90;;;;;;5030810;28;20172;-70
2023/12/27 10:23:02;;;;;;;5.00;4.60;;;9.50;99.90;;;;;;5030705;28;20258;-70
2023/12/27 10:25:29;;;;;;;5.50;5.00;;;9.50;99.90;;;;;;5038834;28;20279;-70
2023/12/27 10:27:55;;;;;;;6.67;5.20;;;9.50;99.90;;;;;;5034253;28;20274;-70
2023/12/27 10:30:21;;;;;;;5.53;4.97;;;9.50;99.90;;;;;;5030498;28;20259;-71
2023/12/27 10:33:00;;;;;;;5.73;4.97;;;9.50;99.90;;;;;;5033345;28;20266;-70
2023/12/27 10:35:31;;;;;;;6.67;4.90;;;9.50;99.90;;;;;;5041712;28;20214;-70
2023/12/27 10:38:07;;;;;;;4.93;4.53;;;9.50;99.90;;;;;;5050324;28;20195;-70
2023/12/27 10:40:39;;;;;;;5.10;4.67;;;9.60;99.90;;;;;;5034573;28;20236;-70
2023/12/27 10:43:05;;;;;;;6.63;5.10;;;9.60;99.90;;;;;;5054081;28;20171;-70
2023/12/27 10:45:30;;;;;;;5.70;5.20;;;9.60;99.90;;;;;;5053484;28;20268;-69
2023/12/27 10:48:01;;;;;;;5.27;4.67;;;9.60;99.90;;;;;;5052498;28;20225;-70
2023/12/27 10:50:28;;;;;;;5.23;4.77;;;9.70;99.90;;;;;;5053523;28;20201;-71
2023/12/27 10:53:07;;;;;;;5.77;5.17;;;9.70;99.90;;;;;;5052586;28;20642;-70
2023/12/27 10:55:33;;;;;;;5.47;4.97;;;9.80;99.90;;;;;;5053441;28;20678;-71
2023/12/27 10:58:06;;;;;;;5.17;4.63;;;9.80;99.90;;;;;;5054296;28;20179;-70
2023/12/27 11:00:33;;;;;;;6.83;4.97;;;9.90;99.90;;;;;;5054336;28;20536;-70
2023/12/27 11:03:00;;;;;;;5.50;4.97;;;9.90;99.90;;;;;;5054535;28;20571;-70
2023/12/27 11:05:29;;;;;;;7.17;5.27;;;9.90;99.90;;;;;;5051284;28;20212;-70
2023/12/27 11:07:55;;;;;;;5.10;4.70;;;10.00;99.90;;;;;;5034721;28;20718;-70
2023/12/27 11:10:23;;;;;;;6.27;5.00;;;10.10;99.90;;;;;;5033768;28;20199;-70
2023/12/27 11:12:50;;;;;;;5.87;4.80;;;10.10;99.90;;;;;;5033852;28;20551;-70
2023/12/27 11:15:19;;;;;;;6.70;4.53;;;10.20;99.90;;;;;;5033279;28;20195;-70
2023/12/27 11:17:48;;;;;;;4.83;4.43;;;10.10;99.90;;;;;;5033065;28;20625;-70
2023/12/27 11:20:16;;;;;;;4.97;4.47;;;10.30;99.90;;;;;;5032735;28;20193;-70
2023/12/27 11:22:45;;;;;;;4.90;4.50;;;10.30;99.90;;;;;;5051187;28;20221;-70
2023/12/27 11:25:12;;;;;;;4.53;4.13;;;10.30;99.90;;;;;;5053015;28;20301;-70
2023/12/27 11:27:39;;;;;;;4.97;4.30;;;10.40;99.90;;;;;;5053672;28;20190;-70
2023/12/27 11:30:12;;;;;;;8.13;4.63;;;10.40;99.90;;;;;;5053706;28;20217;-70
2023/12/27 11:32:41;;;;;;;6.83;4.67;;;10.40;99.90;;;;;;5053595;28;20206;-70
2023/12/27 11:35:26;;;;;;;5.20;4.67;;;10.50;99.90;;;;;;5052528;28;20374;-70
2023/12/27 11:38:11;;;;;;;4.87;4.37;;;10.40;99.90;;;;;;5053606;28;20167;-70
2023/12/27 11:40:39;;;;;;;5.77;4.50;;;10.50;99.90;;;;;;5053721;28;20543;-70
2023/12/27 11:43:04;;;;;;;5.00;4.60;;;10.50;99.90;;;;;;5054331;28;20167;-70
2023/12/27 11:45:56;;;;;;;5.53;5.03;;;10.40;99.90;;;;;;5054256;28;20701;-69
2023/12/27 11:48:22;;;;;;;5.60;4.20;;;10.40;99.90;;;;;;5051261;28;20193;-70
2023/12/27 11:50:47;;;;;;;5.13;3.93;;;10.40;99.90;;;;;;5032845;28;20176;-70
2023/12/27 11:53:14;;;;;;;4.03;3.70;;;10.50;99.90;;;;;;5033767;28;20234;-69
2023/12/27 11:55:41;;;;;;;4.03;3.70;;;10.50;99.90;;;;;;5032849;28;20219;-70
2023/12/27 11:58:08;;;;;;;4.37;3.97;;;10.50;99.90;;;;;;5042462;28;20642;-69
2023/12/27 12:00:35;;;;;;;3.90;3.53;;;10.60;99.90;;;;;;5035824;28;20178;-70
2023/12/27 12:03:02;;;;;;;4.00;3.43;;;10.60;99.90;;;;;;5033156;28;20632;-70
2023/12/27 12:05:50;;;;;;;3.60;3.40;;;10.60;99.90;;;;;;5032824;28;20221;-70
2023/12/27 12:08:34;;;;;;;3.63;3.30;;;10.60;99.90;;;;;;5033032;28;20181;-70
2023/12/27 12:11:15;;;;;;;5.33;3.20;;;10.70;99.90;;;;;;5033876;28;20179;-70
2023/12/27 12:13:41;;;;;;;3.00;2.80;;;10.70;99.90;;;;;;5052904;28;20201;-70
2023/12/27 12:16:07;;;;;;;3.43;3.20;;;10.80;99.90;;;;;;5051855;28;20207;-70
2023/12/27 12:18:34;;;;;;;3.40;3.20;;;10.80;99.90;;;;;;5038538;28;20221;-70
2023/12/27 12:21:00;;;;;;;3.40;3.10;;;10.90;99.90;;;;;;5033869;28;20183;-71
2023/12/27 12:23:30;;;;;;;3.30;3.10;;;10.90;99.90;;;;;;5031358;28;20304;-69
2023/12/27 12:26:00;;;;;;;3.43;3.20;;;11.00;99.90;;;;;;5032462;28;20202;-70
2023/12/27 12:28:27;;;;;;;3.33;3.03;;;11.10;99.90;;;;;;5032491;28;20167;-69
2023/12/27 12:30:55;;;;;;;4.87;3.50;;;11.20;99.90;;;;;;5032728;28;20199;-70
2023/12/27 12:33:21;;;;;;;4.77;3.30;;;11.30;99.90;;;;;;5032005;28;20175;-69
2023/12/27 12:35:47;;;;;;;3.33;3.03;;;11.40;99.90;;;;;;5031911;28;20199;-69
2023/12/27 12:38:13;;;;;;;3.10;2.90;;;11.50;99.90;;;;;;5032175;28;20709;-70
2023/12/27 12:40:39;;;;;;;3.43;3.13;;;11.50;99.90;;;;;;5032307;28;20179;-69
2023/12/27 12:43:05;;;;;;;4.73;3.40;;;11.60;99.90;;;;;;5031804;28;20226;-69
2023/12/27 12:45:32;;;;;;;3.70;2.80;;;11.70;99.90;;;;;;5032591;28;20203;-69